createdAt,value
2022-07-31T00:00:15.285Z,17.77
2022-07-31T00:02:42.276Z,12.37
2022-07-31T00:05:09.585Z,15.83
2022-07-31T00:07:36.755Z,13.30
2022-07-31T00:10:04.970Z,13.30
2022-07-31T00:12:31.961Z,15.27
2022-07-31T00:14:58.959Z,16.27
2022-07-31T00:17:25.910Z,14.00
2022-07-31T00:19:53.464Z,15.67
2022-07-31T00:22:20.439Z,14.40
2022-07-31T00:24:47.432Z,12.53
2022-07-31T00:27:14.387Z,13.00
2022-07-31T00:29:41.355Z,13.37
2022-07-31T00:32:08.301Z,13.50
2022-07-31T00:34:35.237Z,14.43
2022-07-31T00:37:02.981Z,13.37
2022-07-31T00:39:31.112Z,12.40
2022-07-31T00:41:58.482Z,13.30
2022-07-31T00:44:25.997Z,12.43
2022-07-31T00:46:53.597Z,12.60
2022-07-31T00:49:21.256Z,12.30
2022-07-31T00:51:48.384Z,13.43
2022-07-31T00:54:16.957Z,16.03
2022-07-31T00:56:51.744Z,14.67
2022-07-31T00:59:24.599Z,13.13
2022-07-31T01:01:52.495Z,13.73
2022-07-31T01:04:20.355Z,13.07
2022-07-31T01:06:48.300Z,13.93
2022-07-31T01:09:16.723Z,13.40
2022-07-31T01:12:14.168Z,12.87
2022-07-31T01:14:47.804Z,14.33
2022-07-31T01:17:16.866Z,14.20
2022-07-31T01:19:46.772Z,14.97
2022-07-31T01:22:33.761Z,13.90
2022-07-31T01:25:36.948Z,15.67
2022-07-31T01:28:40.575Z,12.80
2022-07-31T01:31:26.145Z,13.00
2022-07-31T01:34:14.338Z,16.07
2022-07-31T01:36:49.618Z,16.23
2022-07-31T01:39:18.560Z,12.60
2022-07-31T01:41:48.335Z,12.00
2022-07-31T01:44:17.829Z,16.50
2022-07-31T01:46:47.042Z,12.20
2022-07-31T01:49:16.977Z,13.80
2022-07-31T01:51:45.674Z,14.63
2022-07-31T01:54:14.021Z,14.33
2022-07-31T01:56:42.198Z,11.83
2022-07-31T01:59:22.575Z,12.77
2022-07-31T02:02:12.642Z,12.13
2022-07-31T02:04:40.467Z,12.37
2022-07-31T02:07:11.142Z,13.40
2022-07-31T02:09:52.538Z,12.87
2022-07-31T02:12:32.200Z,12.63
2022-07-31T02:15:04.127Z,12.30
2022-07-31T02:17:32.051Z,12.60
2022-07-31T02:20:39.901Z,15.13
2022-07-31T02:23:07.822Z,14.50
2022-07-31T02:25:36.975Z,11.10
2022-07-31T02:28:15.293Z,15.90
2022-07-31T02:30:44.355Z,12.60
2022-07-31T02:33:18.854Z,12.40
2022-07-31T02:35:53.890Z,11.30
2022-07-31T02:38:24.125Z,10.67
2022-07-31T02:40:59.264Z,12.20
2022-07-31T02:43:31.259Z,10.17
2022-07-31T02:46:01.504Z,13.10
2022-07-31T02:48:29.536Z,11.93
2022-07-31T02:51:01.716Z,11.70
2022-07-31T02:53:30.540Z,10.10
2022-07-31T02:56:04.431Z,15.40
2022-07-31T02:58:33.840Z,14.63
2022-07-31T03:01:04.068Z,12.03
2022-07-31T03:03:32.657Z,12.33
2022-07-31T03:05:59.745Z,10.47
2022-07-31T03:08:30.067Z,10.90
2022-07-31T03:11:03.291Z,11.60
2022-07-31T03:13:32.103Z,11.77
2022-07-31T03:15:59.763Z,13.00
2022-07-31T03:18:28.265Z,10.87
2022-07-31T03:20:56.478Z,11.57
2022-07-31T03:23:25.775Z,11.40
2022-07-31T03:25:59.375Z,10.97
2022-07-31T03:28:26.481Z,11.50
2022-07-31T03:30:56.089Z,9.67
2022-07-31T03:33:25.078Z,11.30
2022-07-31T03:35:53.335Z,10.90
2022-07-31T03:38:39.119Z,11.57
2022-07-31T03:41:08.602Z,12.30
2022-07-31T03:43:46.941Z,9.97
2022-07-31T03:46:20.019Z,10.63
2022-07-31T03:48:48.010Z,9.33
2022-07-31T03:51:16.038Z,10.00
2022-07-31T03:53:43.941Z,10.80
2022-07-31T03:56:22.511Z,9.50
2022-07-31T03:58:52.196Z,10.20
2022-07-31T04:01:21.120Z,11.50
2022-07-31T04:04:00.857Z,10.27
2022-07-31T04:06:48.069Z,8.10
2022-07-31T04:09:18.650Z,8.20
2022-07-31T04:11:47.259Z,9.10
2022-07-31T04:14:14.392Z,8.93
2022-07-31T04:16:41.472Z,8.77
2022-07-31T04:19:08.632Z,12.60
2022-07-31T04:21:36.701Z,8.57
2022-07-31T04:24:05.236Z,9.90
2022-07-31T04:26:49.466Z,10.83
2022-07-31T04:29:17.168Z,7.50
2022-07-31T04:31:44.125Z,8.60
2022-07-31T04:34:15.336Z,7.80
2022-07-31T04:36:42.324Z,7.37
2022-07-31T04:39:09.357Z,8.13
2022-07-31T04:41:36.417Z,9.73
2022-07-31T04:44:03.940Z,11.57
2022-07-31T04:46:45.323Z,43.83
2022-07-31T04:49:15.301Z,6.93
2022-07-31T04:51:43.075Z,10.63
2022-07-31T04:54:10.846Z,15.40
2022-07-31T04:56:41.989Z,8.00
2022-07-31T04:59:21.059Z,6.77
2022-07-31T05:01:49.665Z,6.50
2022-07-31T05:04:20.299Z,9.10
2022-07-31T05:06:50.650Z,6.07
2022-07-31T05:09:23.761Z,12.70
2022-07-31T05:11:55.257Z,25.97
2022-07-31T05:14:22.650Z,12.63
2022-07-31T05:16:49.845Z,8.10
2022-07-31T05:19:18.123Z,7.10
2022-07-31T05:22:03.920Z,11.70
2022-07-31T05:24:51.199Z,6.43
2022-07-31T05:27:18.263Z,5.97
2022-07-31T05:29:46.177Z,5.13
2022-07-31T05:32:13.459Z,6.03
2022-07-31T05:34:40.745Z,6.40
2022-07-31T05:37:10.267Z,5.20
2022-07-31T05:39:40.823Z,5.03
2022-07-31T05:42:45.911Z,6.50
2022-07-31T05:45:33.156Z,5.70
2022-07-31T05:48:00.207Z,4.80
2022-07-31T05:50:27.209Z,5.23
2022-07-31T05:52:55.200Z,5.50
2022-07-31T05:55:49.854Z,6.17
2022-07-31T05:58:32.314Z,11.70
2022-07-31T06:00:59.760Z,4.97
2022-07-31T06:03:34.702Z,5.47
2022-07-31T06:06:20.440Z,5.70
2022-07-31T06:08:47.386Z,6.27
2022-07-31T06:11:14.354Z,4.13
2022-07-31T06:13:43.371Z,5.20
2022-07-31T06:16:19.529Z,5.17
2022-07-31T06:18:46.533Z,10.00
2022-07-31T06:23:39.401Z,6.40
2022-07-31T06:26:16.900Z,4.00
2022-07-31T06:28:48.712Z,4.80
2022-07-31T06:31:21.691Z,6.17
2022-07-31T06:33:51.160Z,4.43
2022-07-31T06:36:22.442Z,5.70
2022-07-31T06:38:59.626Z,4.67
2022-07-31T06:41:44.734Z,4.80
2022-07-31T06:44:30.712Z,9.27
2022-07-31T06:47:21.648Z,6.43
2022-07-31T06:50:14.635Z,4.37
2022-07-31T06:52:51.576Z,4.07
2022-07-31T06:55:19.160Z,5.47
2022-07-31T06:57:46.766Z,9.13
2022-07-31T07:00:19.683Z,6.00
2022-07-31T07:02:50.944Z,5.40
2022-07-31T07:05:18.195Z,4.87
2022-07-31T07:07:49.252Z,4.03
2022-07-31T07:10:16.362Z,4.30
2022-07-31T07:12:58.515Z,5.53
2022-07-31T07:15:26.064Z,5.67
2022-07-31T07:17:53.520Z,7.83
2022-07-31T07:20:29.524Z,5.33
2022-07-31T07:22:56.768Z,5.40
2022-07-31T07:25:37.851Z,5.40
2022-07-31T07:28:06.464Z,8.23
2022-07-31T07:30:34.300Z,5.80
2022-07-31T07:33:02.915Z,6.20
2022-07-31T07:35:33.933Z,4.60
2022-07-31T07:38:04.723Z,3.80
2022-07-31T07:40:32.924Z,5.00
2022-07-31T07:43:02.979Z,5.77
2022-07-31T07:45:31.153Z,4.23
2022-07-31T07:48:06.372Z,7.50
2022-07-31T07:50:51.283Z,4.20
2022-07-31T07:53:30.058Z,4.57
2022-07-31T07:56:17.921Z,7.10
2022-07-31T07:59:03.466Z,5.03
2022-07-31T08:01:48.858Z,3.97
2022-07-31T08:04:21.129Z,3.40
2022-07-31T08:06:48.425Z,4.10
2022-07-31T08:09:16.875Z,8.37
2022-07-31T08:12:04.006Z,7.77
2022-07-31T08:14:58.089Z,4.60
2022-07-31T08:17:43.362Z,5.83
2022-07-31T08:20:11.873Z,5.23
2022-07-31T08:22:39.531Z,7.97
2022-07-31T08:25:06.866Z,8.13
2022-07-31T08:27:41.399Z,4.77
2022-07-31T08:30:10.312Z,5.27
2022-07-31T08:32:38.605Z,6.50
2022-07-31T08:35:06.238Z,4.50
2022-07-31T08:37:52.152Z,8.33
2022-07-31T08:40:22.576Z,6.20
2022-07-31T08:42:49.782Z,4.10
2022-07-31T08:45:17.209Z,4.47
2022-07-31T08:47:53.257Z,5.33
2022-07-31T08:50:28.523Z,7.70
2022-07-31T08:52:58.873Z,4.27
2022-07-31T08:55:55.260Z,12.37
2022-07-31T08:58:25.178Z,4.50
2022-07-31T09:00:52.503Z,5.17
2022-07-31T09:03:19.614Z,7.10
2022-07-31T09:05:46.699Z,7.27
2022-07-31T09:08:15.681Z,6.57
2022-07-31T09:10:50.036Z,5.73
2022-07-31T09:13:19.388Z,4.00
2022-07-31T09:15:48.502Z,5.00
2022-07-31T09:18:22.019Z,6.27
2022-07-31T09:21:03.402Z,6.37
2022-07-31T09:23:32.155Z,6.20
2022-07-31T09:26:05.839Z,7.70
2022-07-31T09:28:35.929Z,4.80
2022-07-31T09:31:05.505Z,3.83
2022-07-31T09:33:46.214Z,4.83
2022-07-31T09:36:25.411Z,5.30
2022-07-31T09:39:04.360Z,4.37
2022-07-31T09:42:01.226Z,5.60
2022-07-31T09:44:42.284Z,4.90
2022-07-31T09:47:29.886Z,3.80
2022-07-31T09:50:02.305Z,11.43
2022-07-31T09:52:30.970Z,6.27
2022-07-31T09:55:16.166Z,5.80
2022-07-31T09:57:59.458Z,4.10
2022-07-31T10:00:32.124Z,9.77
2022-07-31T10:03:01.036Z,3.70
2022-07-31T10:05:28.657Z,5.33
2022-07-31T10:08:00.525Z,5.17
2022-07-31T10:11:16.582Z,3.60
2022-07-31T10:13:56.793Z,4.20
2022-07-31T10:16:27.412Z,9.33
2022-07-31T10:19:15.276Z,15.30
2022-07-31T10:22:06.917Z,4.57
2022-07-31T10:24:42.670Z,5.40
2022-07-31T10:27:11.052Z,7.10
2022-07-31T10:29:41.598Z,7.73
2022-07-31T10:32:09.930Z,5.07
2022-07-31T10:34:48.095Z,5.53
2022-07-31T10:37:55.454Z,4.60
2022-07-31T10:40:52.177Z,6.07
2022-07-31T10:43:22.426Z,4.50
2022-07-31T10:46:05.467Z,6.90
2022-07-31T10:48:55.355Z,6.03
2022-07-31T10:51:50.275Z,7.47
2022-07-31T10:54:54.666Z,4.90
2022-07-31T10:57:56.554Z,9.23
2022-07-31T11:00:47.502Z,6.70
2022-07-31T11:03:22.080Z,7.07
2022-07-31T11:06:07.534Z,5.37
2022-07-31T11:08:57.482Z,7.67
2022-07-31T11:12:00.003Z,8.20
2022-07-31T11:14:45.273Z,6.07
2022-07-31T11:18:20.959Z,3.63
2022-07-31T11:20:38.343Z,4.57
2022-07-31T11:23:10.892Z,4.07
2022-07-31T11:25:38.655Z,4.03
2022-07-31T11:28:16.252Z,5.83
2022-07-31T11:31:06.225Z,4.57
2022-07-31T11:33:43.825Z,5.70
2022-07-31T11:36:27.185Z,5.43
2022-07-31T11:39:00.689Z,3.67
2022-07-31T11:41:40.420Z,7.53
2022-07-31T11:44:11.710Z,8.57
2022-07-31T11:46:38.823Z,6.53
2022-07-31T11:49:06.114Z,9.03
2022-07-31T11:51:33.357Z,4.77
2022-07-31T11:54:00.851Z,3.57
2022-07-31T11:56:28.086Z,6.30
2022-07-31T11:58:57.345Z,7.03
2022-07-31T12:01:27.506Z,3.87
2022-07-31T12:03:55.843Z,4.03
2022-07-31T12:06:23.297Z,5.57
2022-07-31T12:08:52.496Z,11.03
2022-07-31T12:11:20.585Z,4.70
2022-07-31T12:13:50.682Z,4.33
2022-07-31T12:16:20.814Z,2.93
2022-07-31T12:19:01.265Z,5.10
2022-07-31T12:21:33.332Z,4.50
2022-07-31T12:24:01.134Z,5.13
2022-07-31T12:26:32.716Z,3.63
2022-07-31T12:29:06.790Z,4.33
2022-07-31T12:31:52.041Z,3.40
2022-07-31T12:34:36.253Z,4.60
2022-07-31T12:37:08.102Z,6.40
2022-07-31T12:39:59.909Z,7.93
2022-07-31T12:42:33.036Z,9.40
2022-07-31T12:45:17.843Z,1.50
2022-07-31T12:47:51.314Z,4.80
2022-07-31T12:50:23.905Z,7.83
2022-07-31T12:52:51.027Z,1.40
2022-07-31T12:55:18.301Z,3.37
2022-07-31T12:57:50.657Z,3.40
2022-07-31T13:00:24.416Z,1.97
2022-07-31T13:02:53.220Z,3.80
2022-07-31T13:05:20.985Z,4.33
2022-07-31T13:07:48.445Z,3.10
2022-07-31T13:10:23.728Z,5.17
2022-07-31T13:12:52.818Z,1.50
2022-07-31T13:15:29.523Z,2.37
2022-07-31T13:18:02.191Z,3.63
2022-07-31T13:20:31.091Z,6.37
2022-07-31T13:22:59.525Z,2.20
2022-07-31T13:25:28.296Z,1.90
2022-07-31T13:27:55.343Z,1.40
2022-07-31T13:30:22.276Z,3.20
2022-07-31T13:32:49.518Z,3.27
2022-07-31T13:35:26.389Z,2.20
2022-07-31T13:37:55.253Z,1.63
2022-07-31T13:40:40.943Z,2.60
2022-07-31T13:43:08.390Z,2.50
2022-07-31T13:45:36.053Z,2.17
2022-07-31T13:48:08.671Z,1.87
2022-07-31T13:50:37.667Z,1.93
2022-07-31T13:53:05.123Z,2.43
2022-07-31T13:55:32.334Z,4.70
2022-07-31T13:57:59.805Z,3.77
2022-07-31T14:00:29.413Z,3.17
2022-07-31T14:02:57.150Z,1.47
2022-07-31T14:05:26.745Z,1.93
2022-07-31T14:07:55.555Z,4.00
2022-07-31T14:10:23.498Z,2.33
2022-07-31T14:12:51.093Z,2.07
2022-07-31T14:15:18.513Z,2.60
2022-07-31T14:17:46.601Z,1.10
2022-07-31T14:20:14.157Z,5.90
2022-07-31T14:22:44.283Z,1.43
2022-07-31T14:25:20.780Z,1.23
2022-07-31T14:27:48.054Z,2.80
2022-07-31T14:30:28.280Z,1.30
2022-07-31T14:32:57.625Z,4.50
2022-07-31T14:35:24.673Z,3.00
2022-07-31T14:37:51.677Z,1.23
2022-07-31T14:40:18.704Z,2.10
2022-07-31T14:42:46.047Z,4.30
2022-07-31T14:45:13.136Z,0.83
2022-07-31T14:47:40.526Z,3.33
2022-07-31T14:50:12.090Z,1.40
2022-07-31T14:52:40.815Z,0.70
2022-07-31T14:55:08.303Z,1.00
2022-07-31T14:57:35.486Z,1.23
2022-07-31T15:00:02.550Z,0.70
2022-07-31T15:02:29.651Z,3.87
2022-07-31T15:04:56.787Z,1.43
2022-07-31T15:07:45.898Z,2.43
2022-07-31T15:10:12.106Z,1.40
2022-07-31T15:12:39.425Z,0.83
2022-07-31T15:15:07.923Z,1.87
2022-07-31T15:17:35.144Z,1.90
2022-07-31T15:20:02.280Z,3.13
2022-07-31T15:22:29.626Z,0.93
2022-07-31T15:24:56.740Z,2.90
2022-07-31T15:27:25.013Z,1.27
2022-07-31T15:30:04.352Z,1.23
2022-07-31T15:32:34.233Z,1.33
2022-07-31T15:35:01.305Z,1.83
2022-07-31T15:37:28.521Z,1.10
2022-07-31T15:40:01.609Z,1.10
2022-07-31T15:42:34.655Z,1.10
2022-07-31T15:45:01.825Z,2.07
2022-07-31T15:47:28.892Z,1.40
2022-07-31T15:49:55.974Z,1.77
2022-07-31T15:52:23.240Z,1.67
2022-07-31T15:54:51.914Z,1.10
2022-07-31T15:57:23.146Z,0.83
2022-07-31T15:59:51.635Z,1.10
2022-07-31T16:02:18.681Z,2.10
2022-07-31T16:04:52.535Z,2.03
2022-07-31T16:08:29.096Z,1.20
2022-07-31T16:10:16.250Z,1.10
2022-07-31T16:12:48.433Z,2.20
2022-07-31T16:15:16.920Z,0.83
2022-07-31T16:17:45.360Z,1.30
2022-07-31T16:20:25.909Z,1.30
2022-07-31T16:22:58.755Z,1.47
2022-07-31T16:25:26.918Z,1.00
2022-07-31T16:27:54.782Z,1.43
2022-07-31T16:30:22.279Z,1.67
2022-07-31T16:32:50.127Z,1.57
2022-07-31T16:35:17.724Z,2.30
2022-07-31T16:37:51.234Z,7.10
2022-07-31T16:40:28.811Z,2.80
2022-07-31T16:43:00.872Z,1.43
2022-07-31T16:45:29.001Z,1.03
2022-07-31T16:47:55.973Z,3.73
2022-07-31T16:50:23.281Z,7.30
2022-07-31T16:52:54.649Z,1.67
2022-07-31T16:55:51.705Z,1.23
2022-07-31T16:58:11.698Z,1.07
2022-07-31T17:00:39.684Z,1.07
2022-07-31T17:03:07.006Z,2.40
2022-07-31T17:05:54.021Z,5.00
2022-07-31T17:08:21.109Z,1.10
2022-07-31T17:10:51.300Z,1.47
2022-07-31T17:13:21.503Z,0.83
2022-07-31T17:15:48.582Z,0.90
2022-07-31T17:18:15.605Z,1.07
2022-07-31T17:20:46.929Z,0.83
2022-07-31T17:23:14.155Z,1.67
2022-07-31T17:25:42.762Z,1.23
2022-07-31T17:28:14.696Z,1.07
2022-07-31T17:30:42.656Z,2.23
2022-07-31T17:33:09.923Z,4.63
2022-07-31T17:35:37.101Z,2.23
2022-07-31T17:38:04.330Z,1.50
2022-07-31T17:40:43.351Z,1.13
2022-07-31T17:43:10.744Z,3.47
2022-07-31T17:45:59.693Z,1.50
2022-07-31T17:48:25.807Z,1.87
2022-07-31T17:50:54.306Z,1.63
2022-07-31T17:53:21.526Z,2.90
2022-07-31T17:55:51.154Z,4.33
2022-07-31T17:58:19.800Z,2.00
2022-07-31T18:00:47.173Z,1.07
2022-07-31T18:03:14.394Z,2.97
2022-07-31T18:05:41.351Z,2.60
2022-07-31T18:08:08.292Z,3.13
2022-07-31T18:10:53.393Z,1.97
2022-07-31T18:13:21.695Z,1.10
2022-07-31T18:15:48.653Z,5.13
2022-07-31T18:18:15.683Z,4.53
2022-07-31T18:20:45.188Z,1.60
2022-07-31T18:23:12.438Z,4.27
2022-07-31T18:25:41.603Z,3.00
2022-07-31T18:28:09.340Z,4.73
2022-07-31T18:30:40.782Z,6.00
2022-07-31T18:33:08.193Z,4.43
2022-07-31T18:35:35.197Z,2.70
2022-07-31T18:38:02.167Z,2.80
2022-07-31T18:40:29.222Z,1.97
2022-07-31T18:42:56.268Z,1.90
2022-07-31T18:45:23.807Z,6.20
2022-07-31T18:47:51.318Z,9.83
2022-07-31T18:51:01.943Z,3.07
2022-07-31T18:53:05.740Z,3.90
2022-07-31T18:55:32.769Z,4.63
2022-07-31T18:57:59.807Z,6.03
2022-07-31T19:00:26.811Z,5.23
2022-07-31T19:02:53.843Z,3.40
2022-07-31T19:05:21.493Z,3.47
2022-07-31T19:07:49.483Z,4.57
2022-07-31T19:10:29.692Z,3.43
2022-07-31T19:12:59.170Z,4.70
2022-07-31T19:15:27.080Z,2.03
2022-07-31T19:17:58.441Z,5.10
2022-07-31T19:20:56.488Z,3.20
2022-07-31T19:23:16.105Z,1.40
2022-07-31T19:25:52.156Z,2.90
2022-07-31T19:28:30.875Z,4.03
2022-07-31T19:30:57.962Z,8.10
2022-07-31T19:33:25.438Z,1.20
2022-07-31T19:35:58.475Z,1.73
2022-07-31T19:38:28.190Z,2.53
2022-07-31T19:40:55.226Z,1.93
2022-07-31T19:43:22.474Z,8.03
2022-07-31T19:46:09.702Z,2.20
2022-07-31T19:48:36.966Z,2.23
2022-07-31T19:51:04.730Z,3.90
2022-07-31T19:53:31.879Z,1.90
2022-07-31T19:56:00.443Z,7.10
2022-07-31T19:58:27.436Z,1.50
2022-07-31T20:00:54.502Z,13.30
2022-07-31T20:03:21.546Z,2.20
2022-07-31T20:05:48.684Z,1.63
2022-07-31T20:08:15.750Z,2.50
2022-07-31T20:10:42.822Z,2.70
2022-07-31T20:13:09.900Z,1.60
2022-07-31T20:15:52.543Z,1.73
2022-07-31T20:18:28.550Z,3.40
2022-07-31T20:21:06.924Z,1.70
2022-07-31T20:23:36.738Z,2.33
2022-07-31T20:26:04.374Z,6.73
2022-07-31T20:28:31.311Z,2.00
2022-07-31T20:30:58.298Z,1.90
2022-07-31T20:33:25.287Z,2.23
2022-07-31T20:35:52.446Z,3.93
2022-07-31T20:38:21.041Z,1.90
2022-07-31T20:40:54.017Z,3.67
2022-07-31T20:43:27.135Z,3.67
2022-07-31T20:45:58.951Z,4.10
2022-07-31T20:48:31.614Z,1.83
2022-07-31T20:51:00.303Z,3.10
2022-07-31T20:53:30.070Z,3.40
2022-07-31T20:55:57.316Z,4.90
2022-07-31T20:58:25.248Z,3.60
2022-07-31T21:00:53.632Z,2.47
2022-07-31T21:03:21.580Z,3.40
2022-07-31T21:05:49.347Z,4.30
2022-07-31T21:08:17.130Z,4.07
2022-07-31T21:10:44.548Z,3.03
2022-07-31T21:13:11.974Z,4.80
2022-07-31T21:15:44.095Z,2.93
2022-07-31T21:18:16.903Z,2.33
2022-07-31T21:20:49.676Z,4.27
2022-07-31T21:23:17.740Z,4.73
2022-07-31T21:25:45.029Z,5.10
2022-07-31T21:28:12.136Z,6.53
2022-07-31T21:30:40.133Z,6.60
2022-07-31T21:33:08.103Z,3.77
2022-07-31T21:35:37.005Z,2.87
2022-07-31T21:38:05.219Z,4.40
2022-07-31T21:40:36.037Z,5.00
2022-07-31T21:43:03.744Z,2.67
2022-07-31T21:45:50.779Z,3.20
2022-07-31T21:48:22.147Z,4.60
2022-07-31T21:50:49.261Z,2.90
2022-07-31T21:53:16.269Z,3.20
2022-07-31T21:55:44.176Z,2.47
2022-07-31T21:58:11.111Z,4.30
2022-07-31T22:00:38.412Z,3.47
2022-07-31T22:03:05.624Z,5.23
2022-07-31T22:05:51.809Z,3.10
2022-07-31T22:08:19.439Z,4.27
2022-07-31T22:10:47.117Z,6.53
2022-07-31T22:13:14.099Z,4.80
2022-07-31T22:15:59.090Z,2.50
2022-07-31T22:18:30.616Z,7.27
2022-07-31T22:20:58.828Z,2.37
2022-07-31T22:23:27.688Z,2.40
2022-07-31T22:25:55.254Z,4.03
2022-07-31T22:28:23.730Z,3.57
2022-07-31T22:30:51.251Z,3.63
2022-07-31T22:33:18.547Z,3.10
2022-07-31T22:35:58.855Z,2.87
2022-07-31T22:38:31.079Z,5.10
2022-07-31T22:40:59.788Z,1.97
2022-07-31T22:44:12.587Z,2.00
2022-07-31T22:46:14.938Z,4.10
2022-07-31T22:48:42.161Z,2.30
2022-07-31T22:51:12.911Z,4.30
2022-07-31T22:53:42.651Z,3.43
2022-07-31T22:56:09.651Z,2.60
2022-07-31T22:58:36.586Z,3.20
2022-07-31T23:01:04.076Z,3.40
2022-07-31T23:03:31.044Z,4.03
2022-07-31T23:06:03.651Z,2.10
2022-07-31T23:08:45.026Z,2.27
2022-07-31T23:11:12.818Z,5.43
2022-07-31T23:13:39.848Z,6.17
2022-07-31T23:16:06.857Z,5.23
2022-07-31T23:18:33.838Z,3.10
2022-07-31T23:21:00.879Z,3.10
2022-07-31T23:23:27.826Z,2.37
2022-07-31T23:25:54.777Z,4.90
2022-07-31T23:28:21.721Z,5.70
2022-07-31T23:30:48.690Z,3.03
2022-07-31T23:33:17.002Z,2.30
2022-07-31T23:35:44.138Z,6.53
2022-07-31T23:38:11.167Z,1.73
2022-07-31T23:40:38.258Z,3.50
2022-07-31T23:43:05.582Z,4.17
2022-07-31T23:45:32.626Z,2.30
2022-07-31T23:47:59.603Z,3.57
2022-07-31T23:50:26.987Z,3.60
2022-07-31T23:52:53.986Z,4.53
2022-07-31T23:55:21.465Z,4.70
2022-07-31T23:57:48.543Z,8.20
